createdAt,value
2023-11-09T00:01:09.402Z,100576.41
2023-11-09T00:03:36.149Z,100576.13
2023-11-09T00:06:02.823Z,100579.38
2023-11-09T00:08:31.769Z,100576.34
2023-11-09T00:10:58.567Z,100580.84
2023-11-09T00:13:25.098Z,100571.66
2023-11-09T00:15:51.776Z,100569.72
2023-11-09T00:18:22.983Z,100574.41
2023-11-09T00:20:50.643Z,100570.38
2023-11-09T00:23:17.291Z,100577.31
2023-11-09T00:25:43.825Z,100574.91
2023-11-09T00:28:10.513Z,100573.13
2023-11-09T00:30:37.159Z,100569.09
2023-11-09T00:33:04.133Z,100564.91
2023-11-09T00:35:31.354Z,100576.69
2023-11-09T00:37:59.116Z,100579.25
2023-11-09T00:40:25.725Z,100570.88
2023-11-09T00:42:52.366Z,100569.09
2023-11-09T00:45:19.180Z,100564.75
2023-11-09T00:47:47.119Z,100565.72
2023-11-09T00:50:14.200Z,100558.13
2023-11-09T00:52:43.820Z,100553.78
2023-11-09T00:55:10.545Z,100560.22
2023-11-09T00:57:37.756Z,100558.63
2023-11-09T01:00:04.884Z,100551.84
2023-11-09T01:02:37.595Z,100557.19
2023-11-09T01:05:07.805Z,100555.75
2023-11-09T01:07:34.852Z,100565.25
2023-11-09T01:10:01.521Z,100557.53
2023-11-09T01:12:28.477Z,100552.34
2023-11-09T01:14:55.399Z,100554.13
2023-11-09T01:17:22.010Z,100551.88
2023-11-09T01:19:48.935Z,100554.63
2023-11-09T01:22:15.574Z,100546.41
2023-11-09T01:24:42.195Z,100551.91
2023-11-09T01:27:08.662Z,100548.19
2023-11-09T01:29:35.199Z,100552.38
2023-11-09T01:32:01.841Z,100549.16
2023-11-09T01:34:28.468Z,100550.44
2023-11-09T01:36:55.100Z,100540.81
2023-11-09T01:39:24.317Z,100554.34
2023-11-09T01:41:51.223Z,100555.47
2023-11-09T01:44:17.793Z,100549.50
2023-11-09T01:46:47.557Z,100542.91
2023-11-09T01:49:14.669Z,100550.81
2023-11-09T01:51:44.896Z,100545.97
2023-11-09T01:54:12.728Z,100543.53
2023-11-09T01:56:39.961Z,100543.25
2023-11-09T01:59:07.066Z,100546.63
2023-11-09T02:01:35.255Z,100549.03
2023-11-09T02:04:03.035Z,100541.94
2023-11-09T02:06:30.762Z,100544.53
2023-11-09T02:08:59.044Z,100542.13
2023-11-09T02:11:26.369Z,100536.31
2023-11-09T02:13:53.316Z,100536.81
2023-11-09T02:16:20.130Z,100536.94
2023-11-09T02:18:48.329Z,100531.78
2023-11-09T02:21:16.434Z,100535.19
2023-11-09T02:23:44.886Z,100535.34
2023-11-09T02:26:11.880Z,100530.19
2023-11-09T02:28:38.578Z,100521.47
2023-11-09T02:31:05.213Z,100521.97
2023-11-09T02:33:31.777Z,100517.28
2023-11-09T02:35:58.312Z,100516.47
2023-11-09T02:38:24.840Z,100514.88
2023-11-09T02:40:51.415Z,100511.50
2023-11-09T02:43:17.950Z,100505.06
2023-11-09T02:45:44.536Z,100499.09
2023-11-09T02:48:11.095Z,100493.47
2023-11-09T02:50:37.880Z,100497.81
2023-11-09T02:53:04.400Z,100482.66
2023-11-09T02:55:30.944Z,100478.63
2023-11-09T02:57:57.512Z,100477.50
2023-11-09T03:00:24.102Z,100474.63
2023-11-09T03:02:50.576Z,100475.91
2023-11-09T03:05:22.453Z,100472.84
2023-11-09T03:07:49.609Z,100468.03
2023-11-09T03:10:17.299Z,100470.59
2023-11-09T03:12:44.020Z,100475.09
2023-11-09T03:15:11.411Z,100470.28
2023-11-09T03:17:44.678Z,100472.38
2023-11-09T03:20:11.675Z,100478.00
2023-11-09T03:22:40.037Z,100475.91
2023-11-09T03:25:07.676Z,100475.72
2023-11-09T03:27:34.350Z,100465.41
2023-11-09T03:30:00.980Z,100465.25
2023-11-09T03:32:27.592Z,100459.31
2023-11-09T03:34:54.330Z,100467.81
2023-11-09T03:37:20.911Z,100469.63
2023-11-09T03:39:47.383Z,100458.66
2023-11-09T03:42:15.952Z,100447.38
2023-11-09T03:44:43.704Z,100446.59
2023-11-09T03:47:10.297Z,100451.75
2023-11-09T03:49:41.867Z,100443.34
2023-11-09T03:52:09.336Z,100448.31
2023-11-09T03:54:36.063Z,100440.41
2023-11-09T03:57:02.556Z,100437.66
2023-11-09T03:59:29.021Z,100432.69
2023-11-09T04:01:55.918Z,100434.47
2023-11-09T04:04:22.461Z,100435.25
2023-11-09T04:06:50.038Z,100438.81
2023-11-09T04:09:16.684Z,100429.94
2023-11-09T04:11:43.145Z,100436.53
2023-11-09T04:14:09.607Z,100429.63
2023-11-09T04:16:36.111Z,100426.88
2023-11-09T04:19:02.833Z,100417.97
2023-11-09T04:21:29.406Z,100424.25
2023-11-09T04:23:55.913Z,100419.41
2023-11-09T04:26:24.102Z,100415.34
2023-11-09T04:28:52.292Z,100418.56
2023-11-09T04:31:21.865Z,100405.50
2023-11-09T04:33:48.388Z,100409.69
2023-11-09T04:36:15.856Z,100397.75
2023-11-09T04:38:42.429Z,100393.41
2023-11-09T04:41:16.821Z,100400.97
2023-11-09T04:43:44.064Z,100391.00
2023-11-09T04:46:18.677Z,100397.28
2023-11-09T04:48:46.082Z,100390.53
2023-11-09T04:51:21.725Z,100385.84
2023-11-09T04:53:54.144Z,100390.72
2023-11-09T04:56:33.156Z,100387.50
2023-11-09T04:59:23.564Z,100377.34
2023-11-09T05:02:09.988Z,100378.34
2023-11-09T05:04:55.425Z,100381.56
2023-11-09T05:07:21.944Z,100378.81
2023-11-09T05:09:48.458Z,100370.06
2023-11-09T05:12:15.321Z,100368.47
2023-11-09T05:14:41.830Z,100363.63
2023-11-09T05:17:09.662Z,100363.63
2023-11-09T05:19:37.589Z,100359.75
2023-11-09T05:22:04.714Z,100355.41
2023-11-09T05:24:31.291Z,100360.41
2023-11-09T05:26:57.913Z,100350.72
2023-11-09T05:29:24.826Z,100351.03
2023-11-09T05:31:51.532Z,100341.66
2023-11-09T05:34:18.018Z,100337.66
2023-11-09T05:36:45.163Z,100351.03
2023-11-09T05:39:11.820Z,100334.22
2023-11-09T05:41:40.508Z,100335.84
2023-11-09T05:44:08.025Z,100342.94
2023-11-09T05:46:34.953Z,100338.75
2023-11-09T05:49:01.743Z,100341.34
2023-11-09T05:51:29.640Z,100336.97
2023-11-09T05:53:58.170Z,100334.22
2023-11-09T05:56:25.687Z,100334.53
2023-11-09T05:58:52.568Z,100331.94
2023-11-09T06:01:19.749Z,100335.13
2023-11-09T06:03:46.594Z,100329.38
2023-11-09T06:06:13.767Z,100329.19
2023-11-09T06:08:40.252Z,100334.53
2023-11-09T06:11:06.701Z,100326.63
2023-11-09T06:13:33.212Z,100326.63
2023-11-09T06:15:59.742Z,100322.88
2023-11-09T06:18:26.452Z,100326.72
2023-11-09T06:20:54.323Z,100331.25
2023-11-09T06:23:21.353Z,100334.66
2023-11-09T06:25:49.302Z,100347.19
2023-11-09T06:28:16.385Z,100344.28
2023-11-09T06:30:43.144Z,100341.19
2023-11-09T06:33:10.570Z,100337.28
2023-11-09T06:35:37.205Z,100330.47
2023-11-09T06:38:05.027Z,100326.69
2023-11-09T06:40:33.074Z,100322.88
2023-11-09T06:42:59.605Z,100320.50
2023-11-09T06:45:26.110Z,100323.50
2023-11-09T06:47:52.845Z,100318.34
2023-11-09T06:50:20.506Z,100323.66
2023-11-09T06:52:48.111Z,100320.53
2023-11-09T06:55:17.780Z,100318.28
2023-11-09T06:57:45.763Z,100318.25
2023-11-09T07:00:13.054Z,100328.25
2023-11-09T07:02:40.711Z,100330.44
2023-11-09T07:05:08.599Z,100319.44
2023-11-09T07:07:35.973Z,100326.53
2023-11-09T07:10:02.524Z,100319.63
2023-11-09T07:12:29.725Z,100322.53
2023-11-09T07:14:56.219Z,100309.47
2023-11-09T07:17:23.483Z,100305.56
2023-11-09T07:19:53.221Z,100307.84
2023-11-09T07:22:23.037Z,100298.13
2023-11-09T07:25:01.723Z,100296.63
2023-11-09T07:27:34.517Z,100308.72
2023-11-09T07:30:01.017Z,100302.03
2023-11-09T07:32:29.986Z,100293.91
2023-11-09T07:34:56.477Z,100290.59
2023-11-09T07:37:22.979Z,100284.47
2023-11-09T07:39:49.519Z,100289.69
2023-11-09T07:42:16.114Z,100294.50
2023-11-09T07:44:42.556Z,100279.97
2023-11-09T07:47:10.108Z,100285.78
2023-11-09T07:49:37.171Z,100280.44
2023-11-09T07:52:06.452Z,100283.66
2023-11-09T07:54:33.289Z,100281.66
2023-11-09T07:57:02.465Z,100277.69
2023-11-09T07:59:29.257Z,100270.09
2023-11-09T08:02:00.100Z,100276.88
2023-11-09T08:04:28.994Z,100275.88
2023-11-09T08:06:55.605Z,100269.50
2023-11-09T08:09:22.768Z,100274.06
2023-11-09T08:11:49.510Z,100275.66
2023-11-09T08:14:16.109Z,100280.25
2023-11-09T08:16:43.016Z,100274.81
2023-11-09T08:19:09.933Z,100272.00
2023-11-09T08:21:37.578Z,100271.38
2023-11-09T08:24:04.683Z,100257.16
2023-11-09T08:26:31.359Z,100260.53
2023-11-09T08:28:59.507Z,100253.28
2023-11-09T08:31:29.079Z,100244.84
2023-11-09T08:33:56.430Z,100245.78
2023-11-09T08:36:23.034Z,100247.16
2023-11-09T08:38:49.680Z,100252.09
2023-11-09T08:41:16.726Z,100245.09
2023-11-09T08:43:43.502Z,100243.63
2023-11-09T08:46:11.133Z,100239.25
2023-11-09T08:48:41.351Z,100237.41
2023-11-09T08:51:15.640Z,100238.75
2023-11-09T08:53:43.174Z,100228.47
2023-11-09T08:56:12.201Z,100229.22
2023-11-09T08:58:41.343Z,100227.78
2023-11-09T09:01:18.202Z,100224.94
2023-11-09T09:03:52.492Z,100213.19
2023-11-09T09:06:19.690Z,100213.41
2023-11-09T09:08:47.927Z,100219.81
2023-11-09T09:11:15.650Z,100212.88
2023-11-09T09:13:43.007Z,100216.81
2023-11-09T09:16:10.897Z,100215.66
2023-11-09T09:18:37.756Z,100221.75
2023-11-09T09:21:09.231Z,100215.22
2023-11-09T09:23:37.932Z,100207.28
2023-11-09T09:26:14.933Z,100204.53
2023-11-09T09:28:48.859Z,100212.97
2023-11-09T09:31:15.850Z,100213.25
2023-11-09T09:33:43.064Z,100208.66
2023-11-09T09:36:11.173Z,100194.72
2023-11-09T09:38:38.079Z,100203.84
2023-11-09T09:41:11.685Z,100205.09
2023-11-09T09:43:41.613Z,100204.56
2023-11-09T09:46:11.438Z,100199.47
2023-11-09T09:48:39.216Z,100193.91
2023-11-09T09:51:10.528Z,100194.34
2023-11-09T09:53:39.540Z,100191.63
2023-11-09T09:56:08.665Z,100188.31
2023-11-09T09:58:37.651Z,100185.03
2023-11-09T10:01:05.196Z,100179.34
2023-11-09T10:03:34.101Z,100169.78
2023-11-09T10:06:00.860Z,100167.41
2023-11-09T10:08:27.450Z,100168.44
2023-11-09T10:10:56.741Z,100165.94
2023-11-09T10:13:26.443Z,100157.63
2023-11-09T10:16:00.682Z,100166.16
2023-11-09T10:18:32.680Z,100165.06
2023-11-09T10:21:02.305Z,100155.94
2023-11-09T10:23:28.928Z,100151.78
2023-11-09T10:28:44.528Z,100150.56
2023-11-09T10:31:29.453Z,100140.84
2023-11-09T10:33:56.534Z,100149.19
2023-11-09T10:36:23.747Z,100139.84
2023-11-09T10:38:50.471Z,100140.44
2023-11-09T10:41:53.253Z,100133.13
2023-11-09T10:44:06.059Z,100133.19
2023-11-09T10:46:35.438Z,100121.00
2023-11-09T10:49:05.137Z,100114.22
2023-11-09T10:51:34.416Z,100121.31
2023-11-09T10:54:04.357Z,100108.22
2023-11-09T10:56:31.655Z,100107.34
2023-11-09T10:58:58.244Z,100105.38
2023-11-09T11:01:30.471Z,100105.69
2023-11-09T11:04:00.189Z,100103.16
2023-11-09T11:06:38.208Z,100098.94
2023-11-09T11:09:20.222Z,100090.28
2023-11-09T11:11:51.014Z,100096.16
2023-11-09T11:14:21.717Z,100093.69
2023-11-09T11:17:13.791Z,100089.81
2023-11-09T11:19:51.520Z,100095.84
2023-11-09T11:22:39.252Z,100091.25
2023-11-09T11:25:19.631Z,100092.03
2023-11-09T11:27:52.367Z,100085.44
2023-11-09T11:30:30.372Z,100086.94
2023-11-09T11:32:59.019Z,100089.31
2023-11-09T11:35:40.380Z,100091.53
2023-11-09T11:38:30.264Z,100089.63
2023-11-09T11:41:06.425Z,100084.25
2023-11-09T11:43:38.509Z,100080.66
2023-11-09T11:46:12.752Z,100074.31
2023-11-09T11:49:00.247Z,100059.34
2023-11-09T11:51:28.605Z,100067.53
2023-11-09T11:54:01.441Z,100064.44
2023-11-09T11:56:34.474Z,100053.75
2023-11-09T11:59:07.316Z,100047.69
2023-11-09T12:01:35.243Z,100039.94
2023-11-09T12:04:08.257Z,100043.97
2023-11-09T12:06:37.718Z,100028.34
2023-11-09T12:09:11.043Z,100029.75
2023-11-09T12:11:47.079Z,100030.56
2023-11-09T12:14:16.429Z,100027.69
2023-11-09T12:16:43.193Z,100019.69
2023-11-09T12:19:13.504Z,100019.53
2023-11-09T12:21:40.720Z,100018.81
2023-11-09T12:24:14.209Z,100017.06
2023-11-09T12:26:43.733Z,100005.22
2023-11-09T12:29:10.985Z,100008.72
2023-11-09T12:31:37.771Z,100012.91
2023-11-09T12:34:10.531Z,100009.75
2023-11-09T12:36:42.819Z,99995.94
2023-11-09T12:39:31.653Z,99998.53
2023-11-09T12:42:02.497Z,99992.38
2023-11-09T12:44:36.659Z,99994.97
2023-11-09T12:47:09.470Z,99998.88
2023-11-09T12:49:36.093Z,100002.66
2023-11-09T12:52:07.117Z,99995.28
2023-11-09T12:54:36.972Z,99997.28
2023-11-09T12:57:06.117Z,99988.53
2023-11-09T12:59:35.185Z,100002.63
2023-11-09T13:02:06.454Z,99992.47
2023-11-09T13:04:43.274Z,99996.50
2023-11-09T13:07:11.556Z,99989.97
2023-11-09T13:09:40.741Z,99993.22
2023-11-09T13:15:31.450Z,99990.47
2023-11-09T13:17:58.282Z,99995.00
2023-11-09T13:20:31.705Z,99989.59
2023-11-09T13:23:06.816Z,99998.16
2023-11-09T13:25:40.700Z,99993.94
2023-11-09T13:28:10.432Z,99992.13
2023-11-09T13:30:55.194Z,99988.16
2023-11-09T13:33:31.761Z,99991.22
2023-11-09T13:36:05.089Z,99987.03
2023-11-09T13:38:44.835Z,99990.78
2023-11-09T13:41:18.095Z,99984.22
2023-11-09T13:43:58.176Z,99992.22
2023-11-09T13:46:25.461Z,99995.50
2023-11-09T13:48:53.297Z,99985.75
2023-11-09T13:51:28.288Z,99983.81
2023-11-09T13:54:16.288Z,99982.94
2023-11-09T13:57:00.964Z,99983.72
2023-11-09T13:59:34.263Z,99984.75
2023-11-09T14:02:01.716Z,99986.00
2023-11-09T14:04:31.748Z,99975.53
2023-11-09T14:07:03.142Z,99975.44
2023-11-09T14:09:35.904Z,99971.16
2023-11-09T14:12:10.372Z,99972.38
2023-11-09T14:14:50.143Z,99970.13
2023-11-09T14:17:25.574Z,99975.59
2023-11-09T14:19:55.686Z,99971.50
2023-11-09T14:22:26.695Z,99974.22
2023-11-09T14:24:55.090Z,99970.69
2023-11-09T14:27:23.938Z,99968.19
2023-11-09T14:29:52.091Z,99959.69
2023-11-09T14:32:25.347Z,99950.81
2023-11-09T14:34:54.342Z,99957.53
2023-11-09T14:37:21.946Z,99964.19
2023-11-09T14:40:08.737Z,99951.22
2023-11-09T14:42:35.190Z,99951.09
2023-11-09T14:45:01.626Z,99950.63
2023-11-09T14:47:37.339Z,99943.47
2023-11-09T14:50:05.674Z,99942.75
2023-11-09T14:52:50.924Z,99936.06
2023-11-09T14:55:20.228Z,99940.59
2023-11-09T14:57:47.379Z,99937.84
2023-11-09T15:00:14.777Z,99933.88
2023-11-09T15:02:43.250Z,99929.91
2023-11-09T15:05:13.475Z,99920.34
2023-11-09T15:07:46.619Z,99911.03
2023-11-09T15:10:14.414Z,99922.25
2023-11-09T15:12:44.736Z,99923.94
2023-11-09T15:15:13.330Z,99917.34
2023-11-09T15:17:43.779Z,99930.84
2023-11-09T15:20:28.311Z,99927.97
2023-11-09T15:22:59.201Z,99914.97
2023-11-09T15:25:26.989Z,99924.88
2023-11-09T15:27:54.128Z,99926.78
2023-11-09T15:30:26.163Z,99912.75
2023-11-09T15:32:53.624Z,99914.44
2023-11-09T15:35:20.375Z,99915.34
2023-11-09T15:37:46.930Z,99914.78
2023-11-09T15:41:08.088Z,99913.06
2023-11-09T15:43:05.580Z,99905.53
2023-11-09T15:45:32.494Z,99905.75
2023-11-09T15:47:59.136Z,99910.63
2023-11-09T15:50:26.905Z,99909.44
2023-11-09T15:52:54.543Z,99903.44
2023-11-09T15:55:22.260Z,99901.06
2023-11-09T15:57:55.542Z,99900.06
2023-11-09T16:00:22.172Z,99907.28
2023-11-09T16:02:49.129Z,99904.34
2023-11-09T16:05:19.134Z,99906.94
2023-11-09T16:07:57.190Z,99893.31
2023-11-09T16:10:25.797Z,99887.16
2023-11-09T16:12:53.181Z,99894.53
2023-11-09T16:15:22.072Z,99892.16
2023-11-09T16:17:50.190Z,99890.00
2023-11-09T16:20:22.730Z,99883.22
2023-11-09T16:22:50.083Z,99877.41
2023-11-09T16:25:23.690Z,99880.38
2023-11-09T16:27:51.860Z,99875.63
2023-11-09T16:30:26.852Z,99873.44
2023-11-09T16:32:54.670Z,99879.44
2023-11-09T16:35:23.442Z,99877.06
2023-11-09T16:37:51.185Z,99877.06
2023-11-09T16:40:17.878Z,99879.31
2023-11-09T16:42:44.343Z,99884.72
2023-11-09T16:45:11.374Z,99878.13
2023-11-09T16:47:37.846Z,99870.19
2023-11-09T16:50:05.082Z,99886.16
2023-11-09T16:52:34.397Z,99884.81
2023-11-09T16:55:03.510Z,99879.03
2023-11-09T16:57:31.988Z,99878.22
2023-11-09T16:59:59.834Z,99881.25
2023-11-09T17:02:26.497Z,99889.16
2023-11-09T17:04:53.568Z,99886.59
2023-11-09T17:07:20.342Z,99881.22
2023-11-09T17:10:09.678Z,99879.94
2023-11-09T17:12:36.508Z,99886.38
2023-11-09T17:15:04.580Z,99878.78
2023-11-09T17:17:31.195Z,99870.34
2023-11-09T17:19:58.469Z,99884.59
2023-11-09T17:22:24.976Z,99888.41
2023-11-09T17:24:51.456Z,99893.03
2023-11-09T17:27:18.044Z,99884.63
2023-11-09T17:29:44.698Z,99874.22
2023-11-09T17:32:11.203Z,99872.72
2023-11-09T17:34:37.799Z,99877.13
2023-11-09T17:37:04.589Z,99869.38
2023-11-09T17:39:32.120Z,99886.38
2023-11-09T17:41:59.920Z,99881.56
2023-11-09T17:44:26.451Z,99877.63
2023-11-09T17:46:53.038Z,99883.44
2023-11-09T17:49:19.761Z,99880.84
2023-11-09T17:51:46.407Z,99874.63
2023-11-09T17:54:13.667Z,99878.66
2023-11-09T17:56:42.726Z,99876.28
2023-11-09T17:59:11.684Z,99871.44
2023-11-09T18:01:38.451Z,99873.78
2023-11-09T18:04:06.202Z,99872.28
2023-11-09T18:06:33.740Z,99872.53
2023-11-09T18:09:01.191Z,99876.84
2023-11-09T18:11:41.173Z,99869.75
2023-11-09T18:14:15.926Z,99868.31
2023-11-09T18:16:44.024Z,99854.84
2023-11-09T18:19:14.387Z,99860.72
2023-11-09T18:21:41.192Z,99854.63
2023-11-09T18:24:08.069Z,99849.72
2023-11-09T18:26:34.546Z,99843.16
2023-11-09T18:29:01.265Z,99844.66
2023-11-09T18:31:28.471Z,99840.69
2023-11-09T18:33:56.128Z,99839.81
2023-11-09T18:36:22.863Z,99841.88
2023-11-09T18:38:50.146Z,99829.88
2023-11-09T18:41:18.060Z,99830.81
2023-11-09T18:43:45.450Z,99824.56
2023-11-09T18:46:12.003Z,99836.16
2023-11-09T18:48:38.518Z,99814.59
2023-11-09T18:51:09.038Z,99831.50
2023-11-09T18:53:36.643Z,99830.03
2023-11-09T18:56:03.929Z,99823.81
2023-11-09T18:58:30.757Z,99827.06
2023-11-09T19:00:58.448Z,99823.34
2023-11-09T19:05:55.111Z,99821.84
2023-11-09T19:08:21.910Z,99824.53
2023-11-09T19:10:52.899Z,99823.03
2023-11-09T19:13:23.216Z,99824.16
2023-11-09T19:15:49.991Z,99824.88
2023-11-09T19:18:17.425Z,99819.19
2023-11-09T19:23:21.176Z,99829.38
2023-11-09T19:25:48.079Z,99834.34
2023-11-09T19:28:14.578Z,99828.38
2023-11-09T19:30:41.063Z,99834.34
2023-11-09T19:33:08.640Z,99825.41
2023-11-09T19:35:35.314Z,99832.41
2023-11-09T19:38:01.903Z,99826.41
2023-11-09T19:40:28.547Z,99825.41
2023-11-09T19:42:55.466Z,99828.56
2023-11-09T19:45:27.243Z,99826.63
2023-11-09T19:47:55.692Z,99819.25
2023-11-09T19:50:25.542Z,99827.06
2023-11-09T19:52:52.025Z,99818.25
2023-11-09T19:55:18.620Z,99814.19
2023-11-09T19:57:45.560Z,99818.38
2023-11-09T20:00:14.284Z,99814.78
2023-11-09T20:02:41.059Z,99812.31
2023-11-09T20:05:08.048Z,99807.91
2023-11-09T20:07:35.287Z,99808.25
2023-11-09T20:10:01.986Z,99811.28
2023-11-09T20:12:30.475Z,99810.91
2023-11-09T20:14:57.422Z,99813.53
2023-11-09T20:17:27.100Z,99809.91
2023-11-09T20:20:02.154Z,99815.91
2023-11-09T20:22:35.041Z,99810.13
2023-11-09T20:25:01.761Z,99819.19
2023-11-09T20:27:28.915Z,99818.16
2023-11-09T20:29:57.111Z,99815.72
2023-11-09T20:32:23.711Z,99811.63
2023-11-09T20:34:50.462Z,99805.84
2023-11-09T20:37:18.459Z,99805.84
2023-11-09T20:39:45.501Z,99809.03
2023-11-09T20:42:12.365Z,99818.66
2023-11-09T20:44:38.924Z,99816.63
2023-11-09T20:47:06.202Z,99815.03
2023-11-09T20:49:37.335Z,99807.91
2023-11-09T20:52:04.233Z,99815.03
2023-11-09T20:54:30.877Z,99814.47
2023-11-09T20:57:00.377Z,99818.44
2023-11-09T20:59:27.060Z,99811.41
2023-11-09T21:01:53.580Z,99819.00
2023-11-09T21:04:20.138Z,99814.72
2023-11-09T21:06:46.733Z,99814.63
2023-11-09T21:09:13.453Z,99812.59
2023-11-09T21:11:39.947Z,99815.22
2023-11-09T21:14:06.750Z,99809.00
2023-11-09T21:16:33.508Z,99804.56
2023-11-09T21:19:03.697Z,99800.59
2023-11-09T21:21:32.499Z,99806.38
2023-11-09T21:23:59.335Z,99794.38
2023-11-09T21:26:25.820Z,99797.09
2023-11-09T21:28:52.321Z,99791.19
2023-11-09T21:31:19.948Z,99796.97
2023-11-09T21:33:47.376Z,99788.72
2023-11-09T21:36:15.329Z,99795.97
2023-11-09T21:38:42.673Z,99809.22
2023-11-09T21:41:09.418Z,99803.78
2023-11-09T21:43:35.987Z,99793.13
2023-11-09T21:46:02.577Z,99806.28
2023-11-09T21:48:29.207Z,99804.50
2023-11-09T21:50:56.583Z,99799.47
2023-11-09T21:53:23.065Z,99791.88
2023-11-09T21:55:50.010Z,99799.28
2023-11-09T21:58:16.499Z,99786.44
2023-11-09T22:00:43.009Z,99787.81
2023-11-09T22:03:09.678Z,99787.81
2023-11-09T22:05:37.218Z,99774.56
2023-11-09T22:08:05.904Z,99787.50
2023-11-09T22:10:32.802Z,99781.41
2023-11-09T22:12:59.485Z,99785.81
2023-11-09T22:15:26.073Z,99772.31
2023-11-09T22:17:52.702Z,99773.59
2023-11-09T22:20:19.371Z,99769.72
2023-11-09T22:22:46.030Z,99769.94
2023-11-09T22:25:12.871Z,99778.81
2023-11-09T22:27:39.460Z,99774.03
2023-11-09T22:30:07.495Z,99778.00
2023-11-09T22:32:34.346Z,99782.19
2023-11-09T22:35:00.857Z,99782.34
2023-11-09T22:37:27.352Z,99784.72
2023-11-09T22:39:53.853Z,99777.91
2023-11-09T22:42:21.105Z,99785.28
2023-11-09T22:44:47.945Z,99786.50
2023-11-09T22:47:14.606Z,99785.72
2023-11-09T22:49:41.142Z,99780.28
2023-11-09T22:52:10.645Z,99792.06
2023-11-09T22:54:37.419Z,99788.91
2023-11-09T22:57:06.944Z,99789.69
2023-11-09T22:59:34.409Z,99782.69
2023-11-09T23:02:01.211Z,99784.47
2023-11-09T23:04:29.275Z,99786.06
2023-11-09T23:06:55.913Z,99785.06
2023-11-09T23:09:23.978Z,99791.28
2023-11-09T23:11:51.903Z,99790.50
2023-11-09T23:14:18.675Z,99794.69
2023-11-09T23:16:45.842Z,99781.31
2023-11-09T23:19:12.565Z,99783.56
2023-11-09T23:21:40.350Z,99781.97
2023-11-09T23:24:08.647Z,99774.59
2023-11-09T23:26:35.325Z,99769.03
2023-11-09T23:29:03.201Z,99771.97
2023-11-09T23:31:29.787Z,99763.81
2023-11-09T23:33:58.301Z,99765.41
2023-11-09T23:36:26.267Z,99768.25
2023-11-09T23:38:53.004Z,99763.91
2023-11-09T23:41:19.760Z,99761.88
2023-11-09T23:43:47.316Z,99753.28
2023-11-09T23:46:13.926Z,99750.00
2023-11-09T23:48:40.553Z,99746.38
2023-11-09T23:51:07.610Z,99732.75
2023-11-09T23:53:34.291Z,99743.66
2023-11-09T23:56:01.699Z,99742.53
2023-11-09T23:58:28.217Z,99738.31
